Time,TemperatureF,DewpointF,PressureIn,WindDirection,WindDirectionDegrees,WindSpeedMPH,WindSpeedGustMPH,Humidity,HourlyPrecipIn,Conditions,Clouds,dailyrainin,SoftwareType,DateUTC
2013-01-29 12:00:00,71.7,69.3,29.77,SSE,158,14.0,25.0,92,0.00,,---,0.00,VWS V14.01,2013-01-29 18:00:00,
2013-01-29 13:18:00,71.7,69.3,29.77,SSE,158,14.0,25.0,92,0.00,,---,0.00,VWS V14.01,2013-01-29 19:18:00,
2013-01-29 13:23:00,72.9,69.8,29.70,SSW,210,10.0,26.0,90,0.00,,---,0.00,VWS V14.01,2013-01-29 19:23:00,
2013-01-29 13:28:00,72.5,69.7,29.69,SSE,153,19.0,27.0,91,0.00,,---,0.00,VWS V14.01,2013-01-29 19:28:00,
2013-01-29 13:33:00,72.4,69.6,29.69,SE,129,16.0,27.0,91,0.00,,---,0.00,VWS V14.01,2013-01-29 19:33:00,
2013-01-29 13:38:00,72.9,70.1,29.69,South,174,19.0,27.0,91,0.00,,---,0.00,VWS V14.01,2013-01-29 19:38:00,
2013-01-29 13:43:00,73.2,70.1,29.68,SSE,155,11.0,27.0,90,0.00,,---,0.00,VWS V14.01,2013-01-29 19:43:00,
2013-01-29 13:48:00,73.2,70.1,29.68,SSE,158,16.0,27.0,90,0.00,,---,0.00,VWS V14.01,2013-01-29 19:48:00,
2013-01-29 13:53:00,73.4,70.3,29.68,South,185,19.0,27.0,90,0.00,,---,0.00,VWS V14.01,2013-01-29 19:53:00,
2013-01-29 13:58:00,73.7,70.3,29.67,SSE,153,18.0,27.0,89,0.00,,---,0.00,VWS V14.01,2013-01-29 19:58:00,
2013-01-29 14:03:00,73.9,70.5,29.67,SSE,160,20.0,22.0,89,0.00,,---,0.00,VWS V14.01,2013-01-29 20:03:00,
2013-01-29 14:08:00,74.0,70.6,29.67,SSW,203,27.0,27.0,89,0.00,,---,0.00,VWS V14.01,2013-01-29 20:08:00,
2013-01-29 14:13:00,74.1,70.7,29.66,South,170,18.0,28.0,89,0.00,,---,0.00,VWS V14.01,2013-01-29 20:13:00,
2013-01-29 14:18:00,73.9,70.5,29.66,East,93,12.0,28.0,89,0.00,,---,0.00,VWS V14.01,2013-01-29 20:18:00,
2013-01-29 14:23:00,73.7,70.3,29.66,SSE,160,15.0,28.0,89,0.00,,---,0.00,VWS V14.01,2013-01-29 20:23:00,
2013-01-29 14:28:00,73.4,70.0,29.65,SSW,200,13.0,28.0,89,0.00,,---,0.00,VWS V14.01,2013-01-29 20:28:00,
2013-01-29 14:33:00,73.1,69.7,29.67,South,170,14.0,28.0,89,0.00,,---,0.00,VWS V14.01,2013-01-29 20:33:00,
2013-01-29 14:38:00,72.7,69.6,29.66,SSE,153,14.0,28.0,90,0.00,,---,0.00,VWS V14.01,2013-01-29 20:38:00,
2013-01-29 14:43:00,72.6,69.8,29.66,SE,146,14.0,28.0,91,0.00,,---,0.00,VWS V14.01,2013-01-29 20:43:00,
2013-01-29 14:48:00,72.8,69.7,29.65,SSE,158,11.0,28.0,90,0.00,,---,0.00,VWS V14.01,2013-01-29 20:48:00,
2013-01-29 14:53:00,72.6,69.5,29.65,SSE,165,15.0,28.0,90,0.00,,---,0.00,VWS V14.01,2013-01-29 20:53:00,
2013-01-29 14:58:00,72.5,69.4,29.65,SSE,163,17.0,28.0,90,0.00,,---,0.00,VWS V14.01,2013-01-29 20:58:00,
2013-01-29 15:03:00,72.6,69.8,29.65,SSW,205,9.0,16.0,91,0.00,,---,0.00,VWS V14.01,2013-01-29 21:03:00,
2013-01-29 15:08:00,72.8,69.7,29.65,SE,140,7.0,21.0,90,0.00,,---,0.00,VWS V14.01,2013-01-29 21:08:00,
2013-01-29 15:13:00,72.9,69.8,29.65,SSW,193,14.0,22.0,90,0.00,,---,0.00,VWS V14.01,2013-01-29 21:13:00,
2013-01-29 15:18:00,72.7,69.6,29.64,SSE,160,14.0,22.0,90,0.00,,---,0.00,VWS V14.01,2013-01-29 21:18:00,
2013-01-29 15:23:00,72.6,69.5,29.64,SE,138,9.0,23.0,90,0.00,,---,0.00,VWS V14.01,2013-01-29 21:23:00,
2013-01-29 15:28:00,72.4,69.3,29.64,SSE,152,18.0,23.0,90,0.00,,---,0.00,VWS V14.01,2013-01-29 21:28:00,
2013-01-29 15:33:00,72.1,69.3,29.64,SSW,207,10.0,23.0,91,0.00,,---,0.00,VWS V14.01,2013-01-29 21:33:00,
2013-01-29 15:38:00,72.1,69.3,29.65,South,176,16.0,23.0,91,0.00,,---,0.00,VWS V14.01,2013-01-29 21:38:00,
2013-01-29 15:43:00,72.3,69.5,29.64,SE,145,8.0,24.0,91,0.00,,---,0.00,VWS V14.01,2013-01-29 21:43:00,
2013-01-29 15:48:00,72.3,69.5,29.65,SW,218,11.0,24.0,91,0.00,,---,0.00,VWS V14.01,2013-01-29 21:48:00,
2013-01-29 15:53:00,72.3,69.5,29.64,South,174,21.0,27.0,91,0.00,,---,0.00,VWS V14.01,2013-01-29 21:53:00,
2013-01-29 15:58:00,72.3,69.5,29.64,SSW,197,9.0,27.0,91,0.00,,---,0.00,VWS V14.01,2013-01-29 21:58:00,
2013-01-29 16:03:00,72.4,69.6,29.64,SSE,149,18.0,18.0,91,0.00,,---,0.00,VWS V14.01,2013-01-29 22:03:00,
2013-01-29 16:08:00,72.3,69.5,29.63,SSE,159,15.0,24.0,91,0.00,,---,0.00,VWS V14.01,2013-01-29 22:08:00,
2013-01-29 16:13:00,72.1,69.3,29.63,ESE,108,15.0,24.0,91,0.00,,---,0.00,VWS V14.01,2013-01-29 22:13:00,
2013-01-29 16:18:00,72.1,69.7,29.62,SW,219,9.0,26.0,92,0.00,,---,0.00,VWS V14.01,2013-01-29 22:18:00,
2013-01-29 16:23:00,72.0,69.6,29.63,SSE,153,11.0,28.0,92,0.00,,---,0.00,VWS V14.01,2013-01-29 22:23:00,
2013-01-29 16:28:00,71.8,69.3,29.63,SW,214,8.0,28.0,92,0.00,,---,0.00,VWS V14.01,2013-01-29 22:28:00,
2013-01-29 16:33:00,71.6,69.5,29.63,SE,125,8.0,28.0,93,0.00,,---,0.00,VWS V14.01,2013-01-29 22:33:00,
2013-01-29 16:38:00,71.6,69.5,29.62,SE,145,14.0,28.0,93,0.00,,---,0.00,VWS V14.01,2013-01-29 22:38:00,
2013-01-29 16:43:00,71.5,69.4,29.62,South,170,18.0,28.0,93,0.00,,---,0.00,VWS V14.01,2013-01-29 22:43:00,
2013-01-29 16:48:00,71.3,69.2,29.63,SSE,150,13.0,28.0,93,0.00,,---,0.00,VWS V14.01,2013-01-29 22:48:00,
2013-01-29 16:53:00,71.2,69.1,29.63,SSE,149,10.0,28.0,93,0.00,,---,0.00,VWS V14.01,2013-01-29 22:53:00,
2013-01-29 16:58:00,71.0,69.2,29.63,SSE,153,9.0,28.0,94,0.00,,---,0.00,VWS V14.01,2013-01-29 22:58:00,
2013-01-29 17:03:00,70.9,69.1,29.64,South,181,10.0,22.0,94,0.00,,---,0.00,VWS V14.01,2013-01-29 23:03:00,
2013-01-29 17:08:00,70.7,68.9,29.64,SSE,148,13.0,22.0,94,0.00,,---,0.00,VWS V14.01,2013-01-29 23:08:00,
2013-01-29 17:13:00,70.7,68.9,29.63,SE,141,14.0,22.0,94,0.00,,---,0.00,VWS V14.01,2013-01-29 23:13:00,
2013-01-29 17:18:00,70.7,68.9,29.63,SSE,160,10.0,22.0,94,0.00,,---,0.00,VWS V14.01,2013-01-29 23:18:00,
2013-01-29 17:23:00,70.7,68.9,29.64,South,186,8.0,23.0,94,0.00,,---,0.00,VWS V14.01,2013-01-29 23:23:00,
2013-01-29 17:28:00,70.7,68.9,29.63,South,181,12.0,23.0,94,0.00,,---,0.00,VWS V14.01,2013-01-29 23:28:00,
2013-01-29 17:33:00,70.7,68.9,29.64,SSE,149,9.0,25.0,94,0.00,,---,0.00,VWS V14.01,2013-01-29 23:33:00,
2013-01-29 17:38:00,70.7,68.9,29.63,SW,221,7.0,25.0,94,0.00,,---,0.00,VWS V14.01,2013-01-29 23:38:00,
2013-01-29 17:43:00,70.7,68.9,29.63,SSW,201,10.0,25.0,94,0.00,,---,0.00,VWS V14.01,2013-01-29 23:43:00,
2013-01-29 17:48:00,70.6,68.8,29.63,SW,229,11.0,25.0,94,0.00,,---,0.00,VWS V14.01,2013-01-29 23:48:00,
2013-01-29 17:53:00,70.4,68.9,29.63,SE,125,10.0,25.0,95,0.00,,---,0.00,VWS V14.01,2013-01-29 23:53:00,
2013-01-29 17:58:00,70.3,68.8,29.62,South,177,11.0,25.0,95,0.00,,---,0.00,VWS V14.01,2013-01-29 23:58:00,
2013-01-29 18:03:00,70.2,68.7,29.62,South,187,13.0,17.0,95,0.00,,---,0.00,VWS V14.01,2013-01-30 00:03:00,
2013-01-29 18:08:00,70.1,68.6,29.62,SSE,161,13.0,22.0,95,0.00,,---,0.00,VWS V14.01,2013-01-30 00:08:00,
2013-01-29 18:13:00,70.0,68.5,29.62,SSE,153,12.0,22.0,95,0.00,,---,0.00,VWS V14.01,2013-01-30 00:13:00,
2013-01-29 18:18:00,70.0,68.5,29.62,SSE,165,10.0,23.0,95,0.00,,---,0.00,VWS V14.01,2013-01-30 00:18:00,
2013-01-29 18:23:00,69.9,68.4,29.62,South,190,13.0,23.0,95,0.00,,---,0.00,VWS V14.01,2013-01-30 00:23:00,
2013-01-29 18:28:00,69.9,68.7,29.63,SSE,160,15.0,23.0,96,0.00,,---,0.00,VWS V14.01,2013-01-30 00:28:00,
2013-01-29 18:33:00,69.8,68.6,29.62,South,187,8.0,23.0,96,0.00,,---,0.00,VWS V14.01,2013-01-30 00:33:00,
2013-01-29 18:38:00,69.8,68.6,29.63,South,187,11.0,23.0,96,0.00,,---,0.00,VWS V14.01,2013-01-30 00:38:00,
2013-01-29 18:43:00,69.8,68.6,29.63,SE,143,11.0,23.0,96,0.00,,---,0.00,VWS V14.01,2013-01-30 00:43:00,
2013-01-29 18:48:00,69.7,68.5,29.62,SSE,158,19.0,23.0,96,0.00,,---,0.00,VWS V14.01,2013-01-30 00:48:00,
2013-01-29 18:53:00,69.7,68.5,29.63,SSW,197,9.0,23.0,96,0.00,,---,0.00,VWS V14.01,2013-01-30 00:53:00,
2013-01-29 18:58:00,69.7,68.5,29.63,SSE,162,10.0,23.0,96,0.00,,---,0.00,VWS V14.01,2013-01-30 00:58:00,
2013-01-29 19:03:00,69.7,68.5,29.63,SSW,212,13.0,16.0,96,0.00,,---,0.00,VWS V14.01,2013-01-30 01:03:00,
2013-01-29 19:08:00,69.8,68.6,29.63,SSE,150,9.0,18.0,96,0.00,,---,0.00,VWS V14.01,2013-01-30 01:08:00,
2013-01-29 19:13:00,69.9,68.7,29.63,SSW,193,11.0,19.0,96,0.00,,---,0.00,VWS V14.01,2013-01-30 01:13:00,
2013-01-29 19:18:00,70.0,68.8,29.63,SSE,155,12.0,20.0,96,0.00,,---,0.00,VWS V14.01,2013-01-30 01:18:00,
2013-01-29 19:23:00,70.0,68.8,29.63,SW,215,8.0,22.0,96,0.00,,---,0.00,VWS V14.01,2013-01-30 01:23:00,
2013-01-29 19:28:00,70.0,68.5,29.63,South,190,16.0,22.0,95,0.00,,---,0.00,VWS V14.01,2013-01-30 01:28:00,
2013-01-29 19:33:00,69.9,68.7,29.63,SE,142,12.0,23.0,96,0.00,,---,0.00,VWS V14.01,2013-01-30 01:33:00,
2013-01-29 19:38:00,69.9,68.4,29.63,SSW,194,10.0,23.0,95,0.00,,---,0.00,VWS V14.01,2013-01-30 01:38:00,
2013-01-29 19:43:00,69.8,68.6,29.63,SSW,208,13.0,23.0,96,0.00,,---,0.00,VWS V14.01,2013-01-30 01:43:00,
2013-01-29 19:48:00,69.8,68.6,29.63,SSE,161,17.0,23.0,96,0.00,,---,0.00,VWS V14.01,2013-01-30 01:48:00,
2013-01-29 19:53:00,69.8,68.6,29.64,South,169,9.0,23.0,96,0.00,,---,0.00,VWS V14.01,2013-01-30 01:53:00,
2013-01-29 19:58:00,69.8,68.6,29.65,SSW,212,6.0,23.0,96,0.00,,---,0.00,VWS V14.01,2013-01-30 01:58:00,
2013-01-29 20:03:00,69.8,68.6,29.64,SE,136,10.0,18.0,96,0.00,,---,0.00,VWS V14.01,2013-01-30 02:03:00,
2013-01-29 20:08:00,69.8,68.6,29.64,ESE,115,8.0,23.0,96,0.00,,---,0.00,VWS V14.01,2013-01-30 02:08:00,
2013-01-29 20:13:00,69.8,68.6,29.64,SSE,158,14.0,23.0,96,0.00,,---,0.00,VWS V14.01,2013-01-30 02:13:00,
2013-01-29 20:18:00,69.7,68.5,29.64,South,169,15.0,23.0,96,0.00,,---,0.00,VWS V14.01,2013-01-30 02:18:00,
2013-01-29 20:23:00,69.7,68.5,29.64,SSW,194,14.0,23.0,96,0.00,,---,0.00,VWS V14.01,2013-01-30 02:23:00,
2013-01-29 20:28:00,69.7,68.5,29.64,South,176,9.0,23.0,96,0.00,,---,0.00,VWS V14.01,2013-01-30 02:28:00,
2013-01-29 20:33:00,69.7,68.5,29.65,SSW,198,6.0,23.0,96,0.00,,---,0.00,VWS V14.01,2013-01-30 02:33:00,
2013-01-29 20:38:00,69.8,68.6,29.65,SSW,203,6.0,23.0,96,0.00,,---,0.00,VWS V14.01,2013-01-30 02:38:00,
2013-01-29 20:43:00,69.8,68.6,29.65,South,181,14.0,23.0,96,0.00,,---,0.00,VWS V14.01,2013-01-30 02:43:00,
2013-01-29 20:48:00,69.9,68.7,29.65,SSE,168,10.0,23.0,96,0.00,,---,0.00,VWS V14.01,2013-01-30 02:48:00,
2013-01-29 20:53:00,69.9,68.7,29.65,SSW,197,11.0,23.0,96,0.00,,---,0.00,VWS V14.01,2013-01-30 02:53:00,
2013-01-29 20:58:00,70.0,68.8,29.65,SSW,205,19.0,23.0,96,0.00,,---,0.00,VWS V14.01,2013-01-30 02:58:00,
2013-01-29 21:03:00,69.9,68.7,29.64,SSE,165,9.0,14.0,96,0.00,,---,0.00,VWS V14.01,2013-01-30 03:03:00,
2013-01-29 21:08:00,69.9,68.7,29.64,SSW,195,15.0,22.0,96,0.00,,---,0.00,VWS V14.01,2013-01-30 03:08:00,
2013-01-29 21:13:00,69.9,68.7,29.65,South,187,15.0,22.0,96,0.00,,---,0.00,VWS V14.01,2013-01-30 03:13:00,
2013-01-29 21:18:00,69.9,68.7,29.64,South,180,14.0,22.0,96,0.00,,---,0.00,VWS V14.01,2013-01-30 03:18:00,
2013-01-29 21:23:00,69.9,68.7,29.64,South,183,8.0,22.0,96,0.00,,---,0.00,VWS V14.01,2013-01-30 03:23:00,
2013-01-29 21:28:00,70.0,68.8,29.65,SSE,149,16.0,22.0,96,0.00,,---,0.00,VWS V14.01,2013-01-30 03:28:00,
2013-01-29 21:33:00,70.0,68.8,29.64,SSW,201,11.0,22.0,96,0.00,,---,0.00,VWS V14.01,2013-01-30 03:33:00,
2013-01-29 21:38:00,69.9,68.7,29.65,South,174,12.0,22.0,96,0.00,,---,0.00,VWS V14.01,2013-01-30 03:38:00,
2013-01-29 21:43:00,69.9,68.7,29.64,SW,226,9.0,22.0,96,0.00,,---,0.00,VWS V14.01,2013-01-30 03:43:00,
2013-01-29 21:48:00,69.8,68.6,29.64,SE,141,19.0,22.0,96,0.00,,---,0.00,VWS V14.01,2013-01-30 03:48:00,
2013-01-29 21:53:00,69.7,68.5,29.64,SSE,149,15.0,22.0,96,0.00,,---,0.00,VWS V14.01,2013-01-30 03:53:00,
2013-01-29 21:58:00,69.7,68.5,29.65,SSW,200,14.0,22.0,96,0.00,,---,0.00,VWS V14.01,2013-01-30 03:58:00,
2013-01-29 22:03:00,69.8,68.6,29.65,South,170,9.0,15.0,96,0.00,,---,0.00,VWS V14.01,2013-01-30 04:03:00,
2013-01-29 22:08:00,69.8,68.6,29.65,South,190,14.0,19.0,96,0.00,,---,0.00,VWS V14.01,2013-01-30 04:08:00,
2013-01-29 22:13:00,69.9,68.7,29.65,South,187,11.0,22.0,96,0.00,,---,0.00,VWS V14.01,2013-01-30 04:13:00,
2013-01-29 22:18:00,69.9,68.7,29.69,West,280,16.0,24.0,96,0.00,,---,0.00,VWS V14.01,2013-01-30 04:18:00,
2013-01-29 22:23:00,70.2,69.0,29.72,West,269,16.0,24.0,96,0.00,,---,0.00,VWS V14.01,2013-01-30 04:23:00,
2013-01-29 22:28:00,70.7,69.5,29.70,WSW,250,20.0,24.0,96,0.00,,---,0.00,VWS V14.01,2013-01-30 04:28:00,
2013-01-29 22:33:00,70.9,69.4,29.73,West,280,15.0,24.0,95,0.00,,---,0.00,VWS V14.01,2013-01-30 04:33:00,
2013-01-29 22:38:00,71.1,69.6,29.74,WNW,291,6.0,24.0,95,0.00,,---,0.00,VWS V14.01,2013-01-30 04:38:00,
2013-01-29 22:43:00,71.3,69.8,29.74,West,278,15.0,24.0,95,0.00,,---,0.00,VWS V14.01,2013-01-30 04:43:00,
2013-01-29 22:48:00,71.6,70.1,29.74,West,266,11.0,24.0,95,0.00,,---,0.00,VWS V14.01,2013-01-30 04:48:00,
2013-01-29 22:53:00,71.0,68.6,29.74,WNW,302,4.0,24.0,92,0.00,,---,0.00,VWS V14.01,2013-01-30 04:53:00,
2013-01-29 22:58:00,69.0,65.6,29.75,NW,316,8.0,24.0,89,0.00,,---,0.00,VWS V14.01,2013-01-30 04:58:00,
2013-01-29 23:00:00,68.0,64.6,29.75,NNW,347,9.0,24.0,89,0.00,,---,0.00,VWS V14.01,2013-01-30 05:00:00,
2013-01-29 23:03:00,66.8,63.5,29.75,NW,326,10.0,15.0,89,0.00,,---,0.00,VWS V14.01,2013-01-30 05:03:00,
2013-01-29 23:08:00,64.5,60.2,29.76,NNW,337,11.0,16.0,86,0.00,,---,0.00,VWS V14.01,2013-01-30 05:08:00,
2013-01-29 23:13:00,63.1,58.2,29.76,NNW,337,9.0,16.0,84,0.00,,---,0.00,VWS V14.01,2013-01-30 05:13:00,
2013-01-29 23:18:00,62.6,57.4,29.77,NNE,29,3.0,16.0,83,0.00,,---,0.00,VWS V14.01,2013-01-30 05:18:00,
2013-01-29 23:23:00,62.6,56.3,29.76,North,352,5.0,16.0,80,0.00,,---,0.00,VWS V14.01,2013-01-30 05:23:00,
2013-01-29 23:28:00,62.6,56.7,29.77,NW,309,6.0,17.0,81,0.00,,---,0.00,VWS V14.01,2013-01-30 05:28:00,
2013-01-29 23:33:00,62.6,56.7,29.76,NW,325,3.0,17.0,81,0.00,,---,0.00,VWS V14.01,2013-01-30 05:33:00,
2013-01-29 23:38:00,62.6,56.0,29.77,NNW,335,8.0,17.0,79,0.00,,---,0.00,VWS V14.01,2013-01-30 05:38:00,
2013-01-29 23:43:00,62.8,55.5,29.76,NW,316,8.0,17.0,77,0.00,,---,0.00,VWS V14.01,2013-01-30 05:43:00,
2013-01-29 23:48:00,63.0,55.3,29.77,North,355,7.0,17.0,76,0.00,,---,0.00,VWS V14.01,2013-01-30 05:48:00,
2013-01-29 23:53:00,63.2,55.2,29.77,NNW,329,4.0,17.0,75,0.00,,---,0.00,VWS V14.01,2013-01-30 05:53:00,
2013-01-29 23:58:00,63.3,54.9,29.77,NNE,32,5.0,17.0,74,0.00,,---,0.00,VWS V14.01,2013-01-30 05:58:00,